sensor_id;sensor_type;location;lat;lon;timestamp;P1;durP1;ratioP1;P2;durP2;ratioP2
46983;SDS011;34732;52.112;9.366;2023-05-23T07:01:53;12.85;;;8.30;;
46983;SDS011;34732;52.112;9.366;2023-05-23T07:05:18;22.17;;;13.15;;
46983;SDS011;34732;52.112;9.366;2023-05-23T07:08:44;16.90;;;10.80;;
46983;SDS011;34732;52.112;9.366;2023-05-23T07:12:09;13.48;;;9.25;;
46983;SDS011;34732;52.112;9.366;2023-05-23T07:15:35;16.80;;;8.82;;
46983;SDS011;34732;52.112;9.366;2023-05-23T07:19:03;13.35;;;8.40;;
46983;SDS011;34732;52.112;9.366;2023-05-23T07:22:29;12.93;;;8.75;;
46983;SDS011;34732;52.112;9.366;2023-05-23T07:25:53;9.70;;;7.07;;
46983;SDS011;34732;52.112;9.366;2023-05-23T07:29:34;12.73;;;8.38;;
46983;SDS011;34732;52.112;9.366;2023-05-23T07:33:02;11.10;;;7.43;;
46983;SDS011;34732;52.112;9.366;2023-05-23T07:39:49;10.15;;;8.13;;
46983;SDS011;34732;52.112;9.366;2023-05-23T07:43:13;10.70;;;7.25;;
46983;SDS011;34732;52.112;9.366;2023-05-23T07:50:04;9.88;;;6.47;;
46983;SDS011;34732;52.112;9.366;2023-05-23T07:53:26;8.05;;;6.20;;
46983;SDS011;34732;52.112;9.366;2023-05-23T07:56:52;8.30;;;6.53;;
46983;SDS011;34732;52.112;9.366;2023-05-23T08:00:19;8.23;;;5.97;;
46983;SDS011;34732;52.112;9.366;2023-05-23T08:03:50;9.38;;;5.97;;
46983;SDS011;34732;52.112;9.366;2023-05-23T08:07:18;8.00;;;6.05;;
46983;SDS011;34732;52.112;9.366;2023-05-23T08:10:44;7.00;;;6.25;;
46983;SDS011;34732;52.112;9.366;2023-05-23T08:14:14;7.55;;;5.72;;
46983;SDS011;34732;52.112;9.366;2023-05-23T08:17:48;7.97;;;5.82;;
46983;SDS011;34732;52.112;9.366;2023-05-23T08:21:11;9.15;;;5.97;;
46983;SDS011;34732;52.112;9.366;2023-05-23T08:24:34;10.43;;;5.28;;
46983;SDS011;34732;52.112;9.366;2023-05-23T08:27:59;10.25;;;6.10;;
46983;SDS011;34732;52.112;9.366;2023-05-23T08:31:41;8.25;;;5.75;;
46983;SDS011;34732;52.112;9.366;2023-05-23T08:35:06;8.90;;;5.53;;
46983;SDS011;34732;52.112;9.366;2023-05-23T08:38:27;10.93;;;6.25;;
46983;SDS011;34732;52.112;9.366;2023-05-23T08:42:03;7.85;;;5.65;;
46983;SDS011;34732;52.112;9.366;2023-05-23T08:45:29;9.48;;;5.93;;
46983;SDS011;34732;52.112;9.366;2023-05-23T08:48:59;7.82;;;5.97;;
46983;SDS011;34732;52.112;9.366;2023-05-23T08:52:26;7.35;;;5.45;;
46983;SDS011;34732;52.112;9.366;2023-05-23T08:55:55;7.70;;;5.93;;
46983;SDS011;34732;52.112;9.366;2023-05-23T08:59:25;11.13;;;6.15;;
46983;SDS011;34732;52.112;9.366;2023-05-23T09:06:33;11.60;;;5.25;;
46983;SDS011;34732;52.112;9.366;2023-05-23T09:09:55;9.75;;;5.70;;
46983;SDS011;34732;52.112;9.366;2023-05-23T09:13:17;13.18;;;5.45;;
46983;SDS011;34732;52.112;9.366;2023-05-23T09:16:41;18.35;;;5.47;;
46983;SDS011;34732;52.112;9.366;2023-05-23T09:20:14;16.90;;;4.55;;
46983;SDS011;34732;52.112;9.366;2023-05-23T09:23:47;7.20;;;3.72;;
46983;SDS011;34732;52.112;9.366;2023-05-23T09:27:08;7.38;;;3.47;;
46983;SDS011;34732;52.112;9.366;2023-05-23T09:30:30;5.07;;;3.08;;
46983;SDS011;34732;52.112;9.366;2023-05-23T09:33:54;9.13;;;2.58;;
46983;SDS011;34732;52.112;9.366;2023-05-23T09:37:19;7.63;;;2.60;;
46983;SDS011;34732;52.112;9.366;2023-05-23T09:40:46;7.22;;;2.40;;
46983;SDS011;34732;52.112;9.366;2023-05-23T09:44:10;5.68;;;2.55;;
46983;SDS011;34732;52.112;9.366;2023-05-23T09:47:31;6.82;;;2.30;;
46983;SDS011;34732;52.112;9.366;2023-05-23T09:50:52;5.03;;;2.40;;
46983;SDS011;34732;52.112;9.366;2023-05-23T09:54:16;3.35;;;1.90;;
46983;SDS011;34732;52.112;9.366;2023-05-23T09:57:40;4.22;;;1.83;;
46983;SDS011;34732;52.112;9.366;2023-05-23T10:01:04;5.97;;;1.98;;
46983;SDS011;34732;52.112;9.366;2023-05-23T10:04:29;5.38;;;1.98;;
46983;SDS011;34732;52.112;9.366;2023-05-23T10:07:51;3.15;;;1.65;;
46983;SDS011;34732;52.112;9.366;2023-05-23T10:15:20;4.93;;;1.63;;
46983;SDS011;34732;52.112;9.366;2023-05-23T10:18:44;2.90;;;1.63;;
46983;SDS011;34732;52.112;9.366;2023-05-23T10:22:11;2.55;;;1.15;;
46983;SDS011;34732;52.112;9.366;2023-05-23T10:25:34;3.40;;;1.38;;
46983;SDS011;34732;52.112;9.366;2023-05-23T10:28:56;2.22;;;1.60;;
46983;SDS011;34732;52.112;9.366;2023-05-23T10:32:17;3.35;;;1.40;;
46983;SDS011;34732;52.112;9.366;2023-05-23T10:35:52;4.68;;;1.30;;
46983;SDS011;34732;52.112;9.366;2023-05-23T10:39:29;11.07;;;2.28;;
46983;SDS011;34732;52.112;9.366;2023-05-23T10:46:49;5.05;;;2.03;;
46983;SDS011;34732;52.112;9.366;2023-05-23T10:50:30;5.47;;;2.33;;
46983;SDS011;34732;52.112;9.366;2023-05-23T10:53:56;7.70;;;2.20;;
46983;SDS011;34732;52.112;9.366;2023-05-23T10:57:26;8.35;;;2.15;;
46983;SDS011;34732;52.112;9.366;2023-05-23T11:04:14;7.10;;;3.28;;
46983;SDS011;34732;52.112;9.366;2023-05-23T11:08:05;7.35;;;3.65;;
46983;SDS011;34732;52.112;9.366;2023-05-23T11:15:40;7.68;;;2.75;;
46983;SDS011;34732;52.112;9.366;2023-05-23T11:22:38;7.15;;;3.20;;
46983;SDS011;34732;52.112;9.366;2023-05-23T11:26:03;6.93;;;2.95;;
46983;SDS011;34732;52.112;9.366;2023-05-23T11:32:52;6.60;;;3.35;;
46983;SDS011;34732;52.112;9.366;2023-05-23T11:36:16;6.28;;;3.17;;
46983;SDS011;34732;52.112;9.366;2023-05-23T11:39:40;8.32;;;3.00;;
46983;SDS011;34732;52.112;9.366;2023-05-23T11:43:05;6.03;;;3.30;;
46983;SDS011;34732;52.112;9.366;2023-05-23T11:46:31;4.88;;;3.22;;
46983;SDS011;34732;52.112;9.366;2023-05-23T11:49:52;5.75;;;3.00;;
46983;SDS011;34732;52.112;9.366;2023-05-23T11:53:16;5.63;;;3.17;;
46983;SDS011;34732;52.112;9.366;2023-05-23T11:56:41;4.57;;;2.88;;
46983;SDS011;34732;52.112;9.366;2023-05-23T12:00:02;5.30;;;3.10;;
46983;SDS011;34732;52.112;9.366;2023-05-23T12:07:34;12.80;;;6.18;;
46983;SDS011;34732;52.112;9.366;2023-05-23T12:11:00;10.40;;;7.15;;
46983;SDS011;34732;52.112;9.366;2023-05-23T12:14:27;11.55;;;7.07;;
46983;SDS011;34732;52.112;9.366;2023-05-23T12:17:52;12.85;;;7.30;;
46983;SDS011;34732;52.112;9.366;2023-05-23T12:21:13;12.20;;;9.00;;
46983;SDS011;34732;52.112;9.366;2023-05-23T12:24:45;14.27;;;9.10;;
46983;SDS011;34732;52.112;9.366;2023-05-23T12:28:07;14.93;;;10.05;;
46983;SDS011;34732;52.112;9.366;2023-05-23T12:31:35;21.83;;;15.02;;
46983;SDS011;34732;52.112;9.366;2023-05-23T12:34:59;21.60;;;14.75;;
46983;SDS011;34732;52.112;9.366;2023-05-23T12:38:20;23.70;;;14.65;;
46983;SDS011;34732;52.112;9.366;2023-05-23T12:41:48;23.02;;;15.20;;
46983;SDS011;34732;52.112;9.366;2023-05-23T12:45:12;25.55;;;15.25;;
46983;SDS011;34732;52.112;9.366;2023-05-23T12:48:34;26.40;;;14.98;;
46983;SDS011;34732;52.112;9.366;2023-05-23T12:51:58;28.88;;;14.02;;
46983;SDS011;34732;52.112;9.366;2023-05-23T12:55:19;21.02;;;12.77;;
46983;SDS011;34732;52.112;9.366;2023-05-23T12:58:43;29.15;;;14.68;;
46983;SDS011;34732;52.112;9.366;2023-05-23T13:02:04;24.08;;;12.98;;
46983;SDS011;34732;52.112;9.366;2023-05-23T13:08:47;24.15;;;13.85;;
46983;SDS011;34732;52.112;9.366;2023-05-23T13:12:12;27.95;;;14.23;;
46983;SDS011;34732;52.112;9.366;2023-05-23T13:15:34;22.73;;;15.07;;
46983;SDS011;34732;52.112;9.366;2023-05-23T13:18:55;20.13;;;12.52;;
46983;SDS011;34732;52.112;9.366;2023-05-23T13:22:20;25.65;;;14.05;;
46983;SDS011;34732;52.112;9.366;2023-05-23T13:25:43;22.17;;;14.07;;
46983;SDS011;34732;52.112;9.366;2023-05-23T13:29:04;30.27;;;14.23;;
46983;SDS011;34732;52.112;9.366;2023-05-23T13:35:49;21.67;;;12.95;;
46983;SDS011;34732;52.112;9.366;2023-05-23T13:39:13;20.73;;;12.82;;
46983;SDS011;34732;52.112;9.366;2023-05-23T13:42:35;28.70;;;13.30;;
46983;SDS011;34732;52.112;9.366;2023-05-23T13:45:58;20.58;;;12.40;;
46983;SDS011;34732;52.112;9.366;2023-05-23T13:49:21;19.10;;;12.75;;
46983;SDS011;34732;52.112;9.366;2023-05-23T13:52:45;18.75;;;13.00;;
46983;SDS011;34732;52.112;9.366;2023-05-23T13:56:06;22.27;;;12.38;;
46983;SDS011;34732;52.112;9.366;2023-05-23T13:59:30;23.10;;;13.27;;
46983;SDS011;34732;52.112;9.366;2023-05-23T14:02:56;19.23;;;13.35;;
46983;SDS011;34732;52.112;9.366;2023-05-23T14:06:17;20.98;;;12.68;;
46983;SDS011;34732;52.112;9.366;2023-05-23T14:09:38;20.85;;;13.13;;
46983;SDS011;34732;52.112;9.366;2023-05-23T14:13:01;21.23;;;12.40;;
46983;SDS011;34732;52.112;9.366;2023-05-23T14:16:28;19.10;;;12.95;;
46983;SDS011;34732;52.112;9.366;2023-05-23T14:20:48;18.15;;;12.32;;
46983;SDS011;34732;52.112;9.366;2023-05-23T14:24:10;22.98;;;13.65;;
46983;SDS011;34732;52.112;9.366;2023-05-23T14:27:33;20.63;;;13.07;;
46983;SDS011;34732;52.112;9.366;2023-05-23T14:31:00;21.02;;;13.43;;
46983;SDS011;34732;52.112;9.366;2023-05-23T14:34:21;21.55;;;13.68;;
46983;SDS011;34732;52.112;9.366;2023-05-23T14:37:47;18.83;;;13.73;;
46983;SDS011;34732;52.112;9.366;2023-05-23T14:41:13;22.05;;;14.52;;
46983;SDS011;34732;52.112;9.366;2023-05-23T14:44:34;18.83;;;13.55;;
46983;SDS011;34732;52.112;9.366;2023-05-23T14:47:58;18.60;;;13.23;;
46983;SDS011;34732;52.112;9.366;2023-05-23T14:51:19;19.42;;;13.07;;
46983;SDS011;34732;52.112;9.366;2023-05-23T14:54:41;21.35;;;13.52;;
46983;SDS011;34732;52.112;9.366;2023-05-23T14:58:06;19.17;;;12.52;;
46983;SDS011;34732;52.112;9.366;2023-05-23T15:01:30;18.58;;;12.10;;
46983;SDS011;34732;52.112;9.366;2023-05-23T15:04:51;18.25;;;12.00;;
46983;SDS011;34732;52.112;9.366;2023-05-23T15:08:12;18.20;;;12.65;;
46983;SDS011;34732;52.112;9.366;2023-05-23T15:11:33;18.55;;;11.57;;
46983;SDS011;34732;52.112;9.366;2023-05-23T15:14:58;20.23;;;12.50;;
46983;SDS011;34732;52.112;9.366;2023-05-23T15:18:26;17.63;;;11.90;;
46983;SDS011;34732;52.112;9.366;2023-05-23T15:21:49;18.25;;;12.10;;
46983;SDS011;34732;52.112;9.366;2023-05-23T15:25:13;16.63;;;11.52;;
46983;SDS011;34732;52.112;9.366;2023-05-23T15:28:37;16.83;;;11.90;;
46983;SDS011;34732;52.112;9.366;2023-05-23T15:31:58;16.38;;;12.13;;
46983;SDS011;34732;52.112;9.366;2023-05-23T15:35:22;18.65;;;11.32;;
46983;SDS011;34732;52.112;9.366;2023-05-23T15:38:45;15.63;;;11.15;;
46983;SDS011;34732;52.112;9.366;2023-05-23T15:42:11;16.73;;;11.68;;
46983;SDS011;34732;52.112;9.366;2023-05-23T15:45:32;17.70;;;10.88;;
46983;SDS011;34732;52.112;9.366;2023-05-23T15:48:58;13.98;;;10.65;;
46983;SDS011;34732;52.112;9.366;2023-05-23T15:52:19;16.55;;;11.18;;
46983;SDS011;34732;52.112;9.366;2023-05-23T15:55:40;16.83;;;11.40;;
46983;SDS011;34732;52.112;9.366;2023-05-23T16:02:28;14.88;;;10.95;;
46983;SDS011;34732;52.112;9.366;2023-05-23T16:05:52;15.07;;;10.82;;
46983;SDS011;34732;52.112;9.366;2023-05-23T16:09:13;12.90;;;9.27;;
46983;SDS011;34732;52.112;9.366;2023-05-23T16:12:34;15.02;;;9.95;;
46983;SDS011;34732;52.112;9.366;2023-05-23T16:15:57;13.48;;;9.85;;
46983;SDS011;34732;52.112;9.366;2023-05-23T16:19:19;14.85;;;9.85;;
46983;SDS011;34732;52.112;9.366;2023-05-23T16:22:40;14.95;;;10.25;;
46983;SDS011;34732;52.112;9.366;2023-05-23T16:26:05;17.73;;;9.90;;
46983;SDS011;34732;52.112;9.366;2023-05-23T16:29:31;18.90;;;9.88;;
46983;SDS011;34732;52.112;9.366;2023-05-23T16:32:52;13.82;;;9.20;;
46983;SDS011;34732;52.112;9.366;2023-05-23T16:36:14;14.13;;;10.30;;
46983;SDS011;34732;52.112;9.366;2023-05-23T16:39:38;14.85;;;9.75;;
46983;SDS011;34732;52.112;9.366;2023-05-23T16:42:59;15.15;;;9.35;;
46983;SDS011;34732;52.112;9.366;2023-05-23T16:46:22;14.68;;;9.90;;
46983;SDS011;34732;52.112;9.366;2023-05-23T16:49:44;14.43;;;9.48;;
46983;SDS011;34732;52.112;9.366;2023-05-23T16:53:11;14.32;;;9.43;;
46983;SDS011;34732;52.112;9.366;2023-05-23T16:56:34;14.00;;;9.25;;
46983;SDS011;34732;52.112;9.366;2023-05-23T16:59:58;11.63;;;9.18;;
46983;SDS011;34732;52.112;9.366;2023-05-23T17:03:19;16.20;;;9.63;;
46983;SDS011;34732;52.112;9.366;2023-05-23T17:06:50;17.48;;;9.93;;
46983;SDS011;34732;52.112;9.366;2023-05-23T17:10:14;20.35;;;8.82;;
46983;SDS011;34732;52.112;9.366;2023-05-23T17:13:39;19.77;;;10.25;;
46983;SDS011;34732;52.112;9.366;2023-05-23T17:20:24;15.05;;;9.02;;
46983;SDS011;34732;52.112;9.366;2023-05-23T17:27:09;14.32;;;9.50;;
46983;SDS011;34732;52.112;9.366;2023-05-23T17:30:33;14.88;;;9.80;;
46983;SDS011;34732;52.112;9.366;2023-05-23T17:33:54;14.77;;;8.65;;
46983;SDS011;34732;52.112;9.366;2023-05-23T17:37:20;13.68;;;9.27;;
46983;SDS011;34732;52.112;9.366;2023-05-23T17:40:45;17.45;;;9.38;;
46983;SDS011;34732;52.112;9.366;2023-05-23T17:44:11;18.10;;;8.32;;
46983;SDS011;34732;52.112;9.366;2023-05-23T17:47:34;16.98;;;8.90;;
46983;SDS011;34732;52.112;9.366;2023-05-23T17:50:58;19.10;;;9.35;;
46983;SDS011;34732;52.112;9.366;2023-05-23T17:54:19;16.00;;;8.85;;
46983;SDS011;34732;52.112;9.366;2023-05-23T17:57:40;14.32;;;8.48;;
46983;SDS011;34732;52.112;9.366;2023-05-23T18:01:02;13.93;;;7.93;;
46983;SDS011;34732;52.112;9.366;2023-05-23T18:04:26;15.30;;;8.20;;
46983;SDS011;34732;52.112;9.366;2023-05-23T18:07:50;14.90;;;8.25;;
46983;SDS011;34732;52.112;9.366;2023-05-23T18:11:18;14.43;;;7.55;;
46983;SDS011;34732;52.112;9.366;2023-05-23T18:14:40;11.05;;;6.85;;
46983;SDS011;34732;52.112;9.366;2023-05-23T18:18:03;14.38;;;7.22;;
46983;SDS011;34732;52.112;9.366;2023-05-23T18:21:29;14.93;;;6.63;;
46983;SDS011;34732;52.112;9.366;2023-05-23T18:24:51;11.40;;;7.20;;
46983;SDS011;34732;52.112;9.366;2023-05-23T18:28:14;15.18;;;6.72;;
46983;SDS011;34732;52.112;9.366;2023-05-23T18:31:36;14.45;;;6.65;;
46983;SDS011;34732;52.112;9.366;2023-05-23T18:34:57;16.65;;;6.75;;
46983;SDS011;34732;52.112;9.366;2023-05-23T18:38:18;16.90;;;7.05;;
46983;SDS011;34732;52.112;9.366;2023-05-23T18:41:42;16.27;;;6.15;;
46983;SDS011;34732;52.112;9.366;2023-05-23T18:45:08;10.88;;;6.80;;
46983;SDS011;34732;52.112;9.366;2023-05-23T18:48:34;14.93;;;6.68;;
46983;SDS011;34732;52.112;9.366;2023-05-23T18:51:56;15.77;;;7.28;;
46983;SDS011;34732;52.112;9.366;2023-05-23T18:55:22;15.52;;;6.22;;
46983;SDS011;34732;52.112;9.366;2023-05-23T18:58:43;12.32;;;6.43;;
46983;SDS011;34732;52.112;9.366;2023-05-23T19:02:09;12.23;;;5.85;;
46983;SDS011;34732;52.112;9.366;2023-05-23T19:05:33;11.40;;;6.80;;
46983;SDS011;34732;52.112;9.366;2023-05-23T19:08:56;10.32;;;6.15;;
46983;SDS011;34732;52.112;9.366;2023-05-23T19:12:22;14.93;;;6.60;;
46983;SDS011;34732;52.112;9.366;2023-05-23T19:15:43;14.88;;;6.43;;
46983;SDS011;34732;52.112;9.366;2023-05-23T19:22:26;11.27;;;5.75;;
46983;SDS011;34732;52.112;9.366;2023-05-23T19:25:53;12.35;;;5.55;;
46983;SDS011;34732;52.112;9.366;2023-05-23T19:29:17;13.30;;;5.68;;
46983;SDS011;34732;52.112;9.366;2023-05-23T19:32:41;12.85;;;5.65;;
46983;SDS011;34732;52.112;9.366;2023-05-23T19:36:04;14.75;;;6.07;;
46983;SDS011;34732;52.112;9.366;2023-05-23T19:39:26;8.05;;;3.08;;
46983;SDS011;34732;52.112;9.366;2023-05-23T19:42:48;11.73;;;2.95;;
46983;SDS011;34732;52.112;9.366;2023-05-23T19:46:10;12.55;;;2.60;;
46983;SDS011;34732;52.112;9.366;2023-05-23T19:49:37;11.57;;;3.05;;
